sensor_id;sensor_type;location;lat;lon;timestamp;P1;durP1;ratioP1;P2;durP2;ratioP2
13797;SDS011;6970;51.340;3.240;2024-02-23T00:01:18;8.63;;;1.70;;
13797;SDS011;6970;51.340;3.240;2024-02-23T00:03:48;5.95;;;1.33;;
13797;SDS011;6970;51.340;3.240;2024-02-23T00:06:16;9.93;;;1.67;;
13797;SDS011;6970;51.340;3.240;2024-02-23T00:08:44;5.93;;;0.90;;
13797;SDS011;6970;51.340;3.240;2024-02-23T00:11:13;11.00;;;1.75;;
13797;SDS011;6970;51.340;3.240;2024-02-23T00:13:41;6.82;;;1.50;;
13797;SDS011;6970;51.340;3.240;2024-02-23T00:18:42;10.25;;;1.75;;
13797;SDS011;6970;51.340;3.240;2024-02-23T00:21:21;9.40;;;1.15;;
13797;SDS011;6970;51.340;3.240;2024-02-23T00:23:50;9.32;;;1.17;;
13797;SDS011;6970;51.340;3.240;2024-02-23T00:26:18;5.90;;;1.35;;
13797;SDS011;6970;51.340;3.240;2024-02-23T00:28:46;7.13;;;1.15;;
13797;SDS011;6970;51.340;3.240;2024-02-23T00:31:16;9.15;;;1.58;;
13797;SDS011;6970;51.340;3.240;2024-02-23T00:33:46;10.00;;;1.35;;
13797;SDS011;6970;51.340;3.240;2024-02-23T00:36:14;7.70;;;1.50;;
13797;SDS011;6970;51.340;3.240;2024-02-23T00:38:42;11.73;;;1.45;;
13797;SDS011;6970;51.340;3.240;2024-02-23T00:43:40;9.45;;;1.20;;
13797;SDS011;6970;51.340;3.240;2024-02-23T00:46:09;7.70;;;1.30;;
13797;SDS011;6970;51.340;3.240;2024-02-23T00:48:41;8.90;;;1.30;;
13797;SDS011;6970;51.340;3.240;2024-02-23T00:56:10;6.47;;;1.13;;
13797;SDS011;6970;51.340;3.240;2024-02-23T01:01:11;6.05;;;1.45;;
13797;SDS011;6970;51.340;3.240;2024-02-23T01:03:38;9.57;;;1.70;;
13797;SDS011;6970;51.340;3.240;2024-02-23T01:06:05;7.35;;;1.25;;
13797;SDS011;6970;51.340;3.240;2024-02-23T01:11:02;7.63;;;1.25;;
13797;SDS011;6970;51.340;3.240;2024-02-23T01:13:32;8.48;;;1.65;;
13797;SDS011;6970;51.340;3.240;2024-02-23T01:16:02;11.20;;;1.48;;
13797;SDS011;6970;51.340;3.240;2024-02-23T01:18:30;9.88;;;1.55;;
13797;SDS011;6970;51.340;3.240;2024-02-23T01:21:01;6.63;;;1.40;;
13797;SDS011;6970;51.340;3.240;2024-02-23T01:23:29;10.02;;;1.67;;
13797;SDS011;6970;51.340;3.240;2024-02-23T01:25:59;7.50;;;1.63;;
13797;SDS011;6970;51.340;3.240;2024-02-23T01:28:27;9.63;;;1.30;;
13797;SDS011;6970;51.340;3.240;2024-02-23T01:30:54;6.80;;;1.50;;
13797;SDS011;6970;51.340;3.240;2024-02-23T01:33:21;7.13;;;1.10;;
13797;SDS011;6970;51.340;3.240;2024-02-23T01:35:52;11.65;;;1.27;;
13797;SDS011;6970;51.340;3.240;2024-02-23T01:38:19;8.90;;;1.55;;
13797;SDS011;6970;51.340;3.240;2024-02-23T01:40:48;8.18;;;1.35;;
13797;SDS011;6970;51.340;3.240;2024-02-23T01:43:16;7.70;;;1.30;;
13797;SDS011;6970;51.340;3.240;2024-02-23T01:45:46;11.63;;;1.52;;
13797;SDS011;6970;51.340;3.240;2024-02-23T01:48:17;9.65;;;1.42;;
13797;SDS011;6970;51.340;3.240;2024-02-23T01:53:18;10.55;;;1.67;;
13797;SDS011;6970;51.340;3.240;2024-02-23T01:55:48;8.70;;;1.58;;
13797;SDS011;6970;51.340;3.240;2024-02-23T02:00:49;8.10;;;1.83;;
13797;SDS011;6970;51.340;3.240;2024-02-23T02:03:16;7.90;;;1.40;;
13797;SDS011;6970;51.340;3.240;2024-02-23T02:05:44;10.68;;;2.13;;
13797;SDS011;6970;51.340;3.240;2024-02-23T02:10:43;8.70;;;1.25;;
13797;SDS011;6970;51.340;3.240;2024-02-23T02:13:12;9.93;;;1.40;;
13797;SDS011;6970;51.340;3.240;2024-02-23T02:15:41;8.60;;;1.30;;
13797;SDS011;6970;51.340;3.240;2024-02-23T02:18:11;8.35;;;1.60;;
13797;SDS011;6970;51.340;3.240;2024-02-23T02:21:12;9.10;;;1.40;;
13797;SDS011;6970;51.340;3.240;2024-02-23T02:23:33;10.45;;;1.30;;
13797;SDS011;6970;51.340;3.240;2024-02-23T02:26:03;10.40;;;1.95;;
13797;SDS011;6970;51.340;3.240;2024-02-23T02:31:01;7.05;;;1.20;;
13797;SDS011;6970;51.340;3.240;2024-02-23T02:33:28;8.25;;;1.55;;
13797;SDS011;6970;51.340;3.240;2024-02-23T02:35:55;10.48;;;1.35;;
13797;SDS011;6970;51.340;3.240;2024-02-23T02:38:22;9.40;;;1.45;;
13797;SDS011;6970;51.340;3.240;2024-02-23T02:40:50;10.98;;;2.00;;
13797;SDS011;6970;51.340;3.240;2024-02-23T02:43:17;10.02;;;1.77;;
13797;SDS011;6970;51.340;3.240;2024-02-23T02:45:47;9.32;;;1.73;;
13797;SDS011;6970;51.340;3.240;2024-02-23T02:48:14;8.68;;;1.23;;
13797;SDS011;6970;51.340;3.240;2024-02-23T02:50:41;9.30;;;1.05;;
13797;SDS011;6970;51.340;3.240;2024-02-23T02:53:10;11.13;;;1.83;;
13797;SDS011;6970;51.340;3.240;2024-02-23T02:55:41;8.18;;;1.38;;
13797;SDS011;6970;51.340;3.240;2024-02-23T02:58:09;8.10;;;1.30;;
13797;SDS011;6970;51.340;3.240;2024-02-23T03:00:39;8.52;;;1.40;;
13797;SDS011;6970;51.340;3.240;2024-02-23T03:03:17;9.48;;;1.40;;
13797;SDS011;6970;51.340;3.240;2024-02-23T03:05:50;11.18;;;1.55;;
13797;SDS011;6970;51.340;3.240;2024-02-23T03:10:51;7.03;;;1.00;;
13797;SDS011;6970;51.340;3.240;2024-02-23T03:16:04;3.67;;;0.95;;
13797;SDS011;6970;51.340;3.240;2024-02-23T03:18:40;4.05;;;0.88;;
13797;SDS011;6970;51.340;3.240;2024-02-23T03:21:09;4.20;;;1.20;;
13797;SDS011;6970;51.340;3.240;2024-02-23T03:23:40;6.30;;;1.15;;
13797;SDS011;6970;51.340;3.240;2024-02-23T03:26:09;3.35;;;1.42;;
13797;SDS011;6970;51.340;3.240;2024-02-23T03:31:09;6.40;;;1.05;;
13797;SDS011;6970;51.340;3.240;2024-02-23T03:36:09;7.63;;;1.40;;
13797;SDS011;6970;51.340;3.240;2024-02-23T03:38:37;6.43;;;1.02;;
13797;SDS011;6970;51.340;3.240;2024-02-23T03:41:06;4.10;;;1.05;;
13797;SDS011;6970;51.340;3.240;2024-02-23T03:43:35;6.00;;;1.20;;
13797;SDS011;6970;51.340;3.240;2024-02-23T03:46:05;8.20;;;1.55;;
13797;SDS011;6970;51.340;3.240;2024-02-23T03:48:35;8.60;;;1.40;;
13797;SDS011;6970;51.340;3.240;2024-02-23T03:51:09;3.85;;;1.02;;
13797;SDS011;6970;51.340;3.240;2024-02-23T03:53:36;5.28;;;1.25;;
13797;SDS011;6970;51.340;3.240;2024-02-23T03:56:04;5.30;;;1.48;;
13797;SDS011;6970;51.340;3.240;2024-02-23T03:58:35;7.28;;;1.50;;
13797;SDS011;6970;51.340;3.240;2024-02-23T04:01:03;5.57;;;1.30;;
13797;SDS011;6970;51.340;3.240;2024-02-23T04:03:30;4.22;;;1.30;;
13797;SDS011;6970;51.340;3.240;2024-02-23T04:05:58;5.15;;;1.42;;
13797;SDS011;6970;51.340;3.240;2024-02-23T04:08:28;5.20;;;0.98;;
13797;SDS011;6970;51.340;3.240;2024-02-23T04:10:59;3.72;;;0.98;;
13797;SDS011;6970;51.340;3.240;2024-02-23T04:13:27;6.63;;;2.05;;
13797;SDS011;6970;51.340;3.240;2024-02-23T04:15:57;6.07;;;1.23;;
13797;SDS011;6970;51.340;3.240;2024-02-23T04:20:57;8.10;;;1.30;;
13797;SDS011;6970;51.340;3.240;2024-02-23T04:23:27;7.50;;;1.20;;
13797;SDS011;6970;51.340;3.240;2024-02-23T04:25:55;5.85;;;1.50;;
13797;SDS011;6970;51.340;3.240;2024-02-23T04:28:25;5.20;;;1.17;;
13797;SDS011;6970;51.340;3.240;2024-02-23T04:31:00;4.93;;;1.20;;
13797;SDS011;6970;51.340;3.240;2024-02-23T04:33:29;5.82;;;1.35;;
13797;SDS011;6970;51.340;3.240;2024-02-23T04:35:57;4.57;;;1.35;;
13797;SDS011;6970;51.340;3.240;2024-02-23T04:41:02;6.03;;;1.13;;
13797;SDS011;6970;51.340;3.240;2024-02-23T04:43:34;6.10;;;1.30;;
13797;SDS011;6970;51.340;3.240;2024-02-23T04:46:02;6.78;;;1.90;;
13797;SDS011;6970;51.340;3.240;2024-02-23T04:48:30;5.93;;;1.58;;
13797;SDS011;6970;51.340;3.240;2024-02-23T04:50:57;4.35;;;1.50;;
13797;SDS011;6970;51.340;3.240;2024-02-23T04:53:24;4.68;;;1.42;;
13797;SDS011;6970;51.340;3.240;2024-02-23T04:55:52;8.10;;;1.65;;
13797;SDS011;6970;51.340;3.240;2024-02-23T04:58:19;8.05;;;1.95;;
13797;SDS011;6970;51.340;3.240;2024-02-23T05:00:47;6.70;;;1.70;;
13797;SDS011;6970;51.340;3.240;2024-02-23T05:03:14;7.05;;;1.63;;
13797;SDS011;6970;51.340;3.240;2024-02-23T05:05:42;5.63;;;1.33;;
13797;SDS011;6970;51.340;3.240;2024-02-23T05:08:17;9.30;;;1.85;;
13797;SDS011;6970;51.340;3.240;2024-02-23T05:10:46;7.22;;;1.30;;
13797;SDS011;6970;51.340;3.240;2024-02-23T05:13:14;9.27;;;1.50;;
13797;SDS011;6970;51.340;3.240;2024-02-23T05:15:43;10.95;;;1.55;;
13797;SDS011;6970;51.340;3.240;2024-02-23T05:18:10;7.03;;;1.38;;
13797;SDS011;6970;51.340;3.240;2024-02-23T05:20:37;5.38;;;1.40;;
13797;SDS011;6970;51.340;3.240;2024-02-23T05:23:04;8.70;;;1.63;;
13797;SDS011;6970;51.340;3.240;2024-02-23T05:25:32;8.98;;;1.40;;
13797;SDS011;6970;51.340;3.240;2024-02-23T05:27:59;6.25;;;1.45;;
13797;SDS011;6970;51.340;3.240;2024-02-23T05:30:26;6.47;;;1.40;;
13797;SDS011;6970;51.340;3.240;2024-02-23T05:32:53;8.77;;;1.50;;
13797;SDS011;6970;51.340;3.240;2024-02-23T05:35:23;7.13;;;1.58;;
13797;SDS011;6970;51.340;3.240;2024-02-23T05:37:52;8.55;;;1.50;;
13797;SDS011;6970;51.340;3.240;2024-02-23T05:40:22;6.75;;;1.60;;
13797;SDS011;6970;51.340;3.240;2024-02-23T05:45:21;7.22;;;1.17;;
13797;SDS011;6970;51.340;3.240;2024-02-23T05:47:52;5.90;;;1.10;;
13797;SDS011;6970;51.340;3.240;2024-02-23T05:50:20;7.75;;;1.23;;
13797;SDS011;6970;51.340;3.240;2024-02-23T05:52:49;8.05;;;1.73;;
13797;SDS011;6970;51.340;3.240;2024-02-23T05:55:22;6.22;;;1.42;;
13797;SDS011;6970;51.340;3.240;2024-02-23T06:00:22;10.15;;;1.88;;
13797;SDS011;6970;51.340;3.240;2024-02-23T06:02:50;8.00;;;1.30;;
13797;SDS011;6970;51.340;3.240;2024-02-23T06:05:17;8.60;;;1.60;;
13797;SDS011;6970;51.340;3.240;2024-02-23T06:10:16;4.75;;;1.10;;
13797;SDS011;6970;51.340;3.240;2024-02-23T06:12:43;9.20;;;1.70;;
13797;SDS011;6970;51.340;3.240;2024-02-23T06:15:11;7.20;;;1.50;;
13797;SDS011;6970;51.340;3.240;2024-02-23T06:17:39;9.23;;;1.38;;
13797;SDS011;6970;51.340;3.240;2024-02-23T06:20:07;10.38;;;1.70;;
13797;SDS011;6970;51.340;3.240;2024-02-23T06:22:36;11.32;;;1.73;;
13797;SDS011;6970;51.340;3.240;2024-02-23T06:27:36;6.90;;;1.33;;
13797;SDS011;6970;51.340;3.240;2024-02-23T06:30:04;12.38;;;1.85;;
13797;SDS011;6970;51.340;3.240;2024-02-23T06:32:31;6.63;;;1.20;;
13797;SDS011;6970;51.340;3.240;2024-02-23T06:35:02;5.28;;;1.40;;
13797;SDS011;6970;51.340;3.240;2024-02-23T06:40:00;7.80;;;1.70;;
13797;SDS011;6970;51.340;3.240;2024-02-23T06:42:31;7.07;;;1.33;;
13797;SDS011;6970;51.340;3.240;2024-02-23T06:47:31;6.63;;;1.70;;
13797;SDS011;6970;51.340;3.240;2024-02-23T06:50:04;8.27;;;1.60;;
13797;SDS011;6970;51.340;3.240;2024-02-23T07:00:16;6.57;;;1.20;;
13797;SDS011;6970;51.340;3.240;2024-02-23T07:05:17;5.03;;;1.15;;
13797;SDS011;6970;51.340;3.240;2024-02-23T07:07:47;7.32;;;1.20;;
13797;SDS011;6970;51.340;3.240;2024-02-23T07:10:24;7.28;;;1.33;;
13797;SDS011;6970;51.340;3.240;2024-02-23T07:13:01;6.13;;;1.33;;
13797;SDS011;6970;51.340;3.240;2024-02-23T07:18:08;6.55;;;1.60;;
13797;SDS011;6970;51.340;3.240;2024-02-23T07:20:35;5.70;;;1.30;;
13797;SDS011;6970;51.340;3.240;2024-02-23T07:23:06;6.25;;;1.23;;
13797;SDS011;6970;51.340;3.240;2024-02-23T07:25:36;9.15;;;1.27;;
13797;SDS011;6970;51.340;3.240;2024-02-23T07:30:35;7.20;;;1.23;;
13797;SDS011;6970;51.340;3.240;2024-02-23T07:35:32;4.00;;;1.20;;
13797;SDS011;6970;51.340;3.240;2024-02-23T07:38:03;7.07;;;1.50;;
13797;SDS011;6970;51.340;3.240;2024-02-23T07:40:30;7.57;;;1.30;;
13797;SDS011;6970;51.340;3.240;2024-02-23T07:43:04;6.78;;;1.23;;
13797;SDS011;6970;51.340;3.240;2024-02-23T07:45:35;7.75;;;1.42;;
13797;SDS011;6970;51.340;3.240;2024-02-23T07:48:08;9.20;;;1.85;;
13797;SDS011;6970;51.340;3.240;2024-02-23T07:50:37;5.60;;;1.23;;
13797;SDS011;6970;51.340;3.240;2024-02-23T07:53:07;9.60;;;1.65;;
13797;SDS011;6970;51.340;3.240;2024-02-23T07:55:34;9.63;;;1.55;;
13797;SDS011;6970;51.340;3.240;2024-02-23T07:58:02;8.20;;;1.67;;
13797;SDS011;6970;51.340;3.240;2024-02-23T08:00:30;8.10;;;1.58;;
13797;SDS011;6970;51.340;3.240;2024-02-23T08:02:59;9.25;;;1.75;;
13797;SDS011;6970;51.340;3.240;2024-02-23T08:07:57;7.78;;;1.25;;
13797;SDS011;6970;51.340;3.240;2024-02-23T08:12:55;5.13;;;1.15;;
13797;SDS011;6970;51.340;3.240;2024-02-23T08:15:24;5.82;;;1.15;;
13797;SDS011;6970;51.340;3.240;2024-02-23T08:17:53;6.63;;;1.45;;
13797;SDS011;6970;51.340;3.240;2024-02-23T08:20:33;6.38;;;1.02;;
13797;SDS011;6970;51.340;3.240;2024-02-23T08:23:00;6.78;;;1.80;;
13797;SDS011;6970;51.340;3.240;2024-02-23T08:25:29;5.43;;;1.60;;
13797;SDS011;6970;51.340;3.240;2024-02-23T08:27:56;3.63;;;0.85;;
13797;SDS011;6970;51.340;3.240;2024-02-23T08:30:26;7.93;;;1.33;;
13797;SDS011;6970;51.340;3.240;2024-02-23T08:32:56;6.80;;;1.30;;
13797;SDS011;6970;51.340;3.240;2024-02-23T08:35:24;6.22;;;1.33;;
13797;SDS011;6970;51.340;3.240;2024-02-23T08:37:53;6.03;;;1.02;;
13797;SDS011;6970;51.340;3.240;2024-02-23T08:40:20;5.65;;;1.30;;
13797;SDS011;6970;51.340;3.240;2024-02-23T08:42:50;4.82;;;0.93;;
13797;SDS011;6970;51.340;3.240;2024-02-23T08:47:51;5.53;;;1.80;;
13797;SDS011;6970;51.340;3.240;2024-02-23T08:50:19;6.00;;;1.13;;
13797;SDS011;6970;51.340;3.240;2024-02-23T08:52:50;5.63;;;1.45;;
13797;SDS011;6970;51.340;3.240;2024-02-23T08:55:18;5.43;;;1.50;;
13797;SDS011;6970;51.340;3.240;2024-02-23T08:57:48;4.32;;;1.15;;
13797;SDS011;6970;51.340;3.240;2024-02-23T09:00:15;6.63;;;1.33;;
13797;SDS011;6970;51.340;3.240;2024-02-23T09:02:47;5.13;;;1.27;;
13797;SDS011;6970;51.340;3.240;2024-02-23T09:05:17;4.82;;;1.30;;
13797;SDS011;6970;51.340;3.240;2024-02-23T09:10:17;4.38;;;1.00;;
13797;SDS011;6970;51.340;3.240;2024-02-23T09:12:48;5.10;;;1.20;;
13797;SDS011;6970;51.340;3.240;2024-02-23T09:15:16;9.48;;;1.48;;
13797;SDS011;6970;51.340;3.240;2024-02-23T09:17:43;7.03;;;1.65;;
13797;SDS011;6970;51.340;3.240;2024-02-23T09:20:11;7.50;;;1.40;;
13797;SDS011;6970;51.340;3.240;2024-02-23T09:22:38;7.05;;;1.25;;
13797;SDS011;6970;51.340;3.240;2024-02-23T09:25:08;5.22;;;1.13;;
13797;SDS011;6970;51.340;3.240;2024-02-23T09:27:38;6.70;;;1.55;;
13797;SDS011;6970;51.340;3.240;2024-02-23T09:32:58;7.43;;;1.27;;
13797;SDS011;6970;51.340;3.240;2024-02-23T09:35:27;5.53;;;1.15;;
13797;SDS011;6970;51.340;3.240;2024-02-23T09:40:25;4.65;;;0.98;;
13797;SDS011;6970;51.340;3.240;2024-02-23T09:42:57;3.78;;;0.90;;
13797;SDS011;6970;51.340;3.240;2024-02-23T09:47:56;4.43;;;0.98;;
13797;SDS011;6970;51.340;3.240;2024-02-23T09:50:30;3.97;;;1.17;;
13797;SDS011;6970;51.340;3.240;2024-02-23T09:53:00;5.72;;;1.15;;
13797;SDS011;6970;51.340;3.240;2024-02-23T09:55:32;3.50;;;1.00;;
13797;SDS011;6970;51.340;3.240;2024-02-23T09:57:59;5.22;;;1.15;;
13797;SDS011;6970;51.340;3.240;2024-02-23T10:00:28;6.43;;;1.02;;
13797;SDS011;6970;51.340;3.240;2024-02-23T10:02:59;3.13;;;0.93;;
13797;SDS011;6970;51.340;3.240;2024-02-23T10:05:29;6.05;;;1.05;;
13797;SDS011;6970;51.340;3.240;2024-02-23T10:10:36;5.50;;;1.13;;
13797;SDS011;6970;51.340;3.240;2024-02-23T10:15:37;5.68;;;1.00;;
13797;SDS011;6970;51.340;3.240;2024-02-23T10:18:23;5.57;;;1.17;;
13797;SDS011;6970;51.340;3.240;2024-02-23T10:20:53;5.43;;;1.10;;
13797;SDS011;6970;51.340;3.240;2024-02-23T10:28:22;7.20;;;1.60;;
13797;SDS011;6970;51.340;3.240;2024-02-23T10:30:50;6.43;;;1.27;;
13797;SDS011;6970;51.340;3.240;2024-02-23T10:33:19;6.13;;;1.30;;
13797;SDS011;6970;51.340;3.240;2024-02-23T10:35:53;3.60;;;1.23;;
13797;SDS011;6970;51.340;3.240;2024-02-23T10:38:28;6.47;;;1.23;;
13797;SDS011;6970;51.340;3.240;2024-02-23T10:43:40;8.50;;;1.70;;
13797;SDS011;6970;51.340;3.240;2024-02-23T10:48:41;4.80;;;1.17;;
13797;SDS011;6970;51.340;3.240;2024-02-23T10:51:13;6.07;;;1.15;;
13797;SDS011;6970;51.340;3.240;2024-02-23T10:53:46;5.85;;;1.58;;
13797;SDS011;6970;51.340;3.240;2024-02-23T10:56:15;3.85;;;0.95;;
13797;SDS011;6970;51.340;3.240;2024-02-23T10:58:44;4.10;;;1.02;;
13797;SDS011;6970;51.340;3.240;2024-02-23T11:01:14;4.68;;;1.15;;
13797;SDS011;6970;51.340;3.240;2024-02-23T11:03:43;3.72;;;0.90;;
13797;SDS011;6970;51.340;3.240;2024-02-23T11:06:16;5.55;;;0.98;;
13797;SDS011;6970;51.340;3.240;2024-02-23T11:11:31;4.85;;;1.10;;
13797;SDS011;6970;51.340;3.240;2024-02-23T11:13:58;2.92;;;0.90;;
13797;SDS011;6970;51.340;3.240;2024-02-23T11:16:31;4.47;;;1.00;;
13797;SDS011;6970;51.340;3.240;2024-02-23T11:19:09;4.50;;;0.80;;
13797;SDS011;6970;51.340;3.240;2024-02-23T11:21:41;2.30;;;0.73;;
13797;SDS011;6970;51.340;3.240;2024-02-23T11:24:08;3.42;;;0.93;;
13797;SDS011;6970;51.340;3.240;2024-02-23T11:26:47;2.80;;;0.60;;
13797;SDS011;6970;51.340;3.240;2024-02-23T11:29:16;2.85;;;0.70;;
13797;SDS011;6970;51.340;3.240;2024-02-23T11:31:51;1.88;;;0.52;;
13797;SDS011;6970;51.340;3.240;2024-02-23T11:34:23;1.65;;;0.63;;
13797;SDS011;6970;51.340;3.240;2024-02-23T11:36:53;4.85;;;0.80;;
13797;SDS011;6970;51.340;3.240;2024-02-23T11:41:52;2.08;;;0.70;;
13797;SDS011;6970;51.340;3.240;2024-02-23T11:44:19;3.03;;;0.70;;
13797;SDS011;6970;51.340;3.240;2024-02-23T11:46:49;4.65;;;0.85;;
13797;SDS011;6970;51.340;3.240;2024-02-23T11:49:19;2.55;;;0.80;;
13797;SDS011;6970;51.340;3.240;2024-02-23T11:51:47;3.58;;;0.65;;
13797;SDS011;6970;51.340;3.240;2024-02-23T11:54:16;3.92;;;0.82;;
13797;SDS011;6970;51.340;3.240;2024-02-23T11:56:50;3.08;;;0.73;;
13797;SDS011;6970;51.340;3.240;2024-02-23T11:59:19;3.95;;;0.90;;
13797;SDS011;6970;51.340;3.240;2024-02-23T12:01:50;3.15;;;0.80;;
13797;SDS011;6970;51.340;3.240;2024-02-23T12:04:17;5.00;;;0.85;;
13797;SDS011;6970;51.340;3.240;2024-02-23T12:06:48;3.45;;;1.02;;
13797;SDS011;6970;51.340;3.240;2024-02-23T12:09:18;1.92;;;0.80;;
13797;SDS011;6970;51.340;3.240;2024-02-23T12:11:46;2.60;;;0.80;;
13797;SDS011;6970;51.340;3.240;2024-02-23T12:14:13;4.75;;;0.90;;
13797;SDS011;6970;51.340;3.240;2024-02-23T12:16:40;2.47;;;0.80;;
13797;SDS011;6970;51.340;3.240;2024-02-23T12:21:39;4.80;;;1.00;;
13797;SDS011;6970;51.340;3.240;2024-02-23T12:24:12;3.03;;;1.00;;
13797;SDS011;6970;51.340;3.240;2024-02-23T12:26:40;4.72;;;1.05;;
13797;SDS011;6970;51.340;3.240;2024-02-23T12:29:07;4.88;;;1.08;;
13797;SDS011;6970;51.340;3.240;2024-02-23T12:34:06;4.78;;;1.02;;
13797;SDS011;6970;51.340;3.240;2024-02-23T12:36:36;6.85;;;1.42;;
13797;SDS011;6970;51.340;3.240;2024-02-23T12:39:06;5.22;;;1.10;;
13797;SDS011;6970;51.340;3.240;2024-02-23T12:41:34;4.13;;;0.93;;
13797;SDS011;6970;51.340;3.240;2024-02-23T12:44:02;5.00;;;1.15;;
13797;SDS011;6970;51.340;3.240;2024-02-23T12:46:30;3.83;;;1.00;;
13797;SDS011;6970;51.340;3.240;2024-02-23T12:48:59;7.10;;;1.40;;
13797;SDS011;6970;51.340;3.240;2024-02-23T12:51:26;4.47;;;1.55;;
13797;SDS011;6970;51.340;3.240;2024-02-23T12:53:59;4.65;;;1.30;;
13797;SDS011;6970;51.340;3.240;2024-02-23T12:56:28;5.68;;;1.63;;
13797;SDS011;6970;51.340;3.240;2024-02-23T12:58:56;4.20;;;1.23;;
13797;SDS011;6970;51.340;3.240;2024-02-23T13:01:25;7.15;;;1.40;;
13797;SDS011;6970;51.340;3.240;2024-02-23T13:03:53;5.85;;;1.27;;
13797;SDS011;6970;51.340;3.240;2024-02-23T13:06:20;4.65;;;1.35;;
13797;SDS011;6970;51.340;3.240;2024-02-23T13:08:48;4.40;;;1.10;;
13797;SDS011;6970;51.340;3.240;2024-02-23T13:11:17;7.53;;;1.20;;
13797;SDS011;6970;51.340;3.240;2024-02-23T13:13:47;5.95;;;1.80;;
13797;SDS011;6970;51.340;3.240;2024-02-23T13:16:16;8.32;;;1.95;;
13797;SDS011;6970;51.340;3.240;2024-02-23T13:18:49;6.32;;;1.58;;
13797;SDS011;6970;51.340;3.240;2024-02-23T13:21:17;6.07;;;1.23;;
13797;SDS011;6970;51.340;3.240;2024-02-23T13:23:50;5.47;;;1.60;;
13797;SDS011;6970;51.340;3.240;2024-02-23T13:26:17;6.28;;;2.35;;
13797;SDS011;6970;51.340;3.240;2024-02-23T13:28:44;5.40;;;1.40;;
13797;SDS011;6970;51.340;3.240;2024-02-23T13:33:46;5.57;;;1.80;;
13797;SDS011;6970;51.340;3.240;2024-02-23T13:36:15;6.68;;;1.70;;
13797;SDS011;6970;51.340;3.240;2024-02-23T13:38:50;4.68;;;1.30;;
13797;SDS011;6970;51.340;3.240;2024-02-23T13:41:20;12.65;;;1.75;;
13797;SDS011;6970;51.340;3.240;2024-02-23T13:43:49;4.90;;;1.52;;
13797;SDS011;6970;51.340;3.240;2024-02-23T13:46:16;5.40;;;1.90;;
13797;SDS011;6970;51.340;3.240;2024-02-23T13:48:43;6.90;;;1.55;;
13797;SDS011;6970;51.340;3.240;2024-02-23T13:51:12;6.65;;;1.58;;
13797;SDS011;6970;51.340;3.240;2024-02-23T13:53:40;6.18;;;1.63;;
13797;SDS011;6970;51.340;3.240;2024-02-23T13:56:08;6.45;;;1.80;;
13797;SDS011;6970;51.340;3.240;2024-02-23T13:58:43;6.15;;;1.25;;
13797;SDS011;6970;51.340;3.240;2024-02-23T14:01:11;6.15;;;1.15;;
13797;SDS011;6970;51.340;3.240;2024-02-23T14:03:41;4.10;;;1.10;;
13797;SDS011;6970;51.340;3.240;2024-02-23T14:06:09;4.60;;;1.13;;
13797;SDS011;6970;51.340;3.240;2024-02-23T14:08:39;3.92;;;1.10;;
13797;SDS011;6970;51.340;3.240;2024-02-23T14:13:37;4.40;;;1.00;;
13797;SDS011;6970;51.340;3.240;2024-02-23T14:16:10;4.50;;;1.13;;
13797;SDS011;6970;51.340;3.240;2024-02-23T14:18:37;3.58;;;0.98;;
13797;SDS011;6970;51.340;3.240;2024-02-23T14:21:06;3.67;;;0.95;;
13797;SDS011;6970;51.340;3.240;2024-02-23T14:26:05;3.55;;;0.80;;
13797;SDS011;6970;51.340;3.240;2024-02-23T14:28:33;3.38;;;0.80;;
13797;SDS011;6970;51.340;3.240;2024-02-23T14:31:01;2.95;;;1.00;;
13797;SDS011;6970;51.340;3.240;2024-02-23T14:36:00;3.75;;;0.90;;
13797;SDS011;6970;51.340;3.240;2024-02-23T14:40:59;1.55;;;0.60;;
13797;SDS011;6970;51.340;3.240;2024-02-23T14:43:26;2.03;;;0.82;;
13797;SDS011;6970;51.340;3.240;2024-02-23T14:45:55;3.63;;;0.88;;
13797;SDS011;6970;51.340;3.240;2024-02-23T14:48:22;3.10;;;0.82;;
13797;SDS011;6970;51.340;3.240;2024-02-23T14:50:52;2.60;;;0.70;;
13797;SDS011;6970;51.340;3.240;2024-02-23T14:53:19;2.17;;;0.73;;
13797;SDS011;6970;51.340;3.240;2024-02-23T14:55:52;1.65;;;0.65;;
13797;SDS011;6970;51.340;3.240;2024-02-23T14:58:20;3.08;;;0.85;;
13797;SDS011;6970;51.340;3.240;2024-02-23T15:00:47;3.17;;;0.93;;
13797;SDS011;6970;51.340;3.240;2024-02-23T15:03:14;3.85;;;0.90;;
13797;SDS011;6970;51.340;3.240;2024-02-23T15:05:44;1.83;;;0.70;;
13797;SDS011;6970;51.340;3.240;2024-02-23T15:10:43;3.75;;;0.90;;
13797;SDS011;6970;51.340;3.240;2024-02-23T15:13:13;3.15;;;1.00;;
13797;SDS011;6970;51.340;3.240;2024-02-23T15:15:40;3.72;;;0.93;;
13797;SDS011;6970;51.340;3.240;2024-02-23T15:18:09;3.50;;;0.98;;
13797;SDS011;6970;51.340;3.240;2024-02-23T15:20:38;4.15;;;1.10;;
13797;SDS011;6970;51.340;3.240;2024-02-23T15:23:05;4.22;;;1.02;;
13797;SDS011;6970;51.340;3.240;2024-02-23T15:30:42;5.72;;;1.27;;
13797;SDS011;6970;51.340;3.240;2024-02-23T15:33:10;7.38;;;1.20;;
13797;SDS011;6970;51.340;3.240;2024-02-23T15:35:38;5.18;;;1.00;;
13797;SDS011;6970;51.340;3.240;2024-02-23T15:38:12;6.38;;;1.27;;
13797;SDS011;6970;51.340;3.240;2024-02-23T15:40:40;4.93;;;0.90;;
13797;SDS011;6970;51.340;3.240;2024-02-23T15:43:08;4.82;;;1.10;;
13797;SDS011;6970;51.340;3.240;2024-02-23T15:45:41;5.50;;;0.90;;
13797;SDS011;6970;51.340;3.240;2024-02-23T15:48:09;6.13;;;1.13;;
13797;SDS011;6970;51.340;3.240;2024-02-23T15:50:37;6.70;;;1.25;;
13797;SDS011;6970;51.340;3.240;2024-02-23T15:55:56;5.40;;;0.90;;
13797;SDS011;6970;51.340;3.240;2024-02-23T15:58:25;5.97;;;1.45;;
13797;SDS011;6970;51.340;3.240;2024-02-23T16:00:55;4.80;;;1.33;;
13797;SDS011;6970;51.340;3.240;2024-02-23T16:03:23;4.15;;;1.35;;
13797;SDS011;6970;51.340;3.240;2024-02-23T16:13:41;5.50;;;0.90;;
13797;SDS011;6970;51.340;3.240;2024-02-23T16:16:10;6.28;;;1.13;;
13797;SDS011;6970;51.340;3.240;2024-02-23T16:18:41;7.25;;;1.17;;
13797;SDS011;6970;51.340;3.240;2024-02-23T16:21:13;6.65;;;1.35;;
13797;SDS011;6970;51.340;3.240;2024-02-23T16:23:45;6.97;;;1.23;;
13797;SDS011;6970;51.340;3.240;2024-02-23T16:28:43;7.90;;;1.50;;
13797;SDS011;6970;51.340;3.240;2024-02-23T16:31:12;5.18;;;1.45;;
13797;SDS011;6970;51.340;3.240;2024-02-23T16:33:42;5.75;;;1.60;;
13797;SDS011;6970;51.340;3.240;2024-02-23T16:36:11;4.82;;;1.23;;
13797;SDS011;6970;51.340;3.240;2024-02-23T16:38:43;5.07;;;1.50;;
13797;SDS011;6970;51.340;3.240;2024-02-23T16:41:10;4.43;;;1.25;;
13797;SDS011;6970;51.340;3.240;2024-02-23T16:46:09;4.03;;;1.20;;
13797;SDS011;6970;51.340;3.240;2024-02-23T16:51:06;4.93;;;1.30;;
13797;SDS011;6970;51.340;3.240;2024-02-23T16:53:36;6.60;;;1.52;;
13797;SDS011;6970;51.340;3.240;2024-02-23T16:56:04;3.65;;;1.15;;
13797;SDS011;6970;51.340;3.240;2024-02-23T16:58:34;5.47;;;1.38;;
13797;SDS011;6970;51.340;3.240;2024-02-23T17:06:18;4.30;;;1.42;;
13797;SDS011;6970;51.340;3.240;2024-02-23T17:08:46;5.55;;;1.80;;
13797;SDS011;6970;51.340;3.240;2024-02-23T17:11:16;5.18;;;1.80;;
13797;SDS011;6970;51.340;3.240;2024-02-23T17:13:46;3.97;;;1.33;;
13797;SDS011;6970;51.340;3.240;2024-02-23T17:16:13;5.68;;;1.52;;
13797;SDS011;6970;51.340;3.240;2024-02-23T17:18:40;4.10;;;1.23;;
13797;SDS011;6970;51.340;3.240;2024-02-23T17:21:08;4.43;;;1.30;;
13797;SDS011;6970;51.340;3.240;2024-02-23T17:23:36;5.70;;;1.50;;
13797;SDS011;6970;51.340;3.240;2024-02-23T17:26:07;4.97;;;1.52;;
13797;SDS011;6970;51.340;3.240;2024-02-23T17:28:37;4.93;;;1.73;;
13797;SDS011;6970;51.340;3.240;2024-02-23T17:31:06;5.85;;;1.33;;
13797;SDS011;6970;51.340;3.240;2024-02-23T17:33:34;4.80;;;1.30;;
13797;SDS011;6970;51.340;3.240;2024-02-23T17:38:35;8.75;;;3.05;;
13797;SDS011;6970;51.340;3.240;2024-02-23T17:41:03;6.72;;;2.78;;
13797;SDS011;6970;51.340;3.240;2024-02-23T17:48:34;4.88;;;1.77;;
13797;SDS011;6970;51.340;3.240;2024-02-23T17:51:04;5.25;;;1.83;;
13797;SDS011;6970;51.340;3.240;2024-02-23T17:53:38;4.88;;;1.83;;
13797;SDS011;6970;51.340;3.240;2024-02-23T17:56:11;4.55;;;1.80;;
13797;SDS011;6970;51.340;3.240;2024-02-23T17:58:40;6.60;;;2.70;;
13797;SDS011;6970;51.340;3.240;2024-02-23T18:01:07;8.43;;;2.92;;